Time;durP1;ratioP1;P1;durP2;ratioP2;P2;SDS_P1;SDS_P2;PMS_P1;PMS_P2;Temp;Humidity;BMP_temperature;BMP_pressure;BME280_temperature;BME280_humidity;BME280_pressure;Samples;Min_cycle;Max_cycle;Signal;HPM_P1;HPM_P2
2022/10/22 00:00:31;;;;;;;;;;;15.90;99.90;;;;;;7337112;19;108653;-90
2022/10/22 00:03:01;;;;;;;;;;;15.90;99.90;;;;;;7337283;19;120895;-91
2022/10/22 00:05:28;;;;;;;;;;;15.90;99.90;;;;;;7340528;19;112182;-91
2022/10/22 00:07:55;;;;;;;;;;;15.80;99.90;;;;;;7339618;19;108620;-90
2022/10/22 00:10:22;;;;;;;;;;;15.80;99.90;;;;;;7337775;19;111734;-91
2022/10/22 00:12:49;;;;;;;;;;;15.80;99.90;;;;;;7338091;19;110660;-91
2022/10/22 00:15:16;;;;;;;;;;;15.80;99.90;;;;;;7340673;19;108369;-93
2022/10/22 00:17:43;;;;;;;;;;;15.70;99.90;;;;;;7339110;19;109644;-90
2022/10/22 00:20:10;;;;;;;;;;;15.80;99.90;;;;;;7343961;19;110145;-90
2022/10/22 00:22:37;;;;;;;;;;;15.70;99.90;;;;;;7346267;19;109964;-90
2022/10/22 00:25:04;;;;;;;;;;;15.70;99.90;;;;;;7344321;19;109332;-91
2022/10/22 00:27:30;;;;;;;;;;;15.70;99.90;;;;;;7346836;19;109614;-91
2022/10/22 00:29:57;;;;;;;;;;;15.60;99.90;;;;;;7347099;19;111443;-90
2022/10/22 00:32:24;;;;;;;;;;;15.60;99.90;;;;;;7347004;19;110620;-90
2022/10/22 00:34:51;;;;;;;;;;;15.60;99.90;;;;;;7345821;19;108813;-91
2022/10/22 00:37:18;;;;;;;;;;;15.60;99.90;;;;;;7344649;19;109253;-91
2022/10/22 00:39:45;;;;;;;;;;;15.60;99.90;;;;;;7344582;19;110474;-91
2022/10/22 00:42:16;;;;;;;;;;;15.60;99.90;;;;;;7352284;19;108324;-91
2022/10/22 00:45:03;;;;;;;;;;;15.60;99.90;;;;;;7347749;19;113926;-90
2022/10/22 00:47:31;;;;;;;;;;;15.60;99.90;;;;;;7343846;19;108483;-90
2022/10/22 00:49:59;;;;;;;;;;;15.60;99.90;;;;;;7346519;19;109252;-91
2022/10/22 00:52:27;;;;;;;;;;;15.60;99.90;;;;;;7345050;19;112390;-90
2022/10/22 00:54:54;;;;;;;;;;;15.60;99.90;;;;;;7346042;19;109885;-91
2022/10/22 00:57:21;;;;;;;;;;;15.50;99.90;;;;;;7346668;19;112143;-90
2022/10/22 00:59:48;;;;;;;;;;;15.50;99.90;;;;;;7344299;19;109696;-91
2022/10/22 01:02:15;;;;;;;;;;;15.50;99.90;;;;;;7345465;19;109431;-91
2022/10/22 01:04:43;;;;;;;;;;;15.50;99.90;;;;;;7349544;19;109237;-91
2022/10/22 01:07:17;;;;;;;;;;;15.40;99.90;;;;;;7346175;19;108964;-90
2022/10/22 01:09:55;;;;;;;;;;;15.40;99.90;;;;;;7345779;19;109194;-90
2022/10/22 01:12:23;;;;;;;;;;;15.50;99.90;;;;;;7343168;19;109245;-91
2022/10/22 01:15:09;;;;;;;;;;;15.50;99.90;;;;;;7346282;19;108939;-91
2022/10/22 01:17:39;;;;;;;;;;;15.40;99.90;;;;;;7344230;19;108656;-90
2022/10/22 01:20:26;;;;;;;;;;;15.40;99.90;;;;;;7344927;19;110317;-91
2022/10/22 01:23:02;;;;;;;;;;;15.40;99.90;;;;;;7344636;19;108501;-90
2022/10/22 01:25:49;;;;;;;;;;;15.40;99.90;;;;;;7348273;19;110901;-90
2022/10/22 01:28:30;;;;;;;;;;;15.40;99.90;;;;;;7344979;19;109963;-90
2022/10/22 01:30:58;;;;;;;;;;;15.40;99.90;;;;;;7344225;19;109367;-91
2022/10/22 01:33:26;;;;;;;;;;;15.40;99.90;;;;;;7344587;19;111220;-91
2022/10/22 01:35:53;;;;;;;;;;;15.40;99.90;;;;;;7343541;19;108844;-91
2022/10/22 01:38:22;;;;;;;;;;;15.40;99.90;;;;;;7341977;19;110968;-90
2022/10/22 01:40:49;;;;;;;;;;;15.30;99.90;;;;;;7341707;19;113335;-91
2022/10/22 01:43:16;;;;;;;;;;;15.30;99.90;;;;;;7344912;19;108827;-91
2022/10/22 01:45:46;;;;;;;;;;;15.30;99.90;;;;;;7343979;19;110942;-90
2022/10/22 01:48:31;;;;;;;;;;;15.30;99.90;;;;;;7348124;19;110084;-90
2022/10/22 01:51:04;;;;;;;;;;;15.30;99.90;;;;;;7344418;19;109364;-90
2022/10/22 01:53:31;;;;;;;;;;;15.20;99.90;;;;;;7346184;19;110634;-91
2022/10/22 01:56:21;;;;;;;;;;;15.20;99.90;;;;;;7343491;19;108579;-91
2022/10/22 01:59:00;;;;;;;;;;;15.20;99.90;;;;;;7345353;19;109233;-91
2022/10/22 02:01:30;;;;;;;;;;;15.20;99.90;;;;;;7344326;19;109704;-90
2022/10/22 02:04:35;;;;;;;;;;;15.20;99.90;;;;;;7344448;19;108349;-91
2022/10/22 02:07:04;;;;;;;;;;;15.20;99.90;;;;;;7342137;19;109183;-90
2022/10/22 02:09:32;;;;;;;;;;;15.20;99.90;;;;;;7342362;19;110403;-91
2022/10/22 02:12:00;;;;;;;;;;;15.20;99.90;;;;;;7344892;19;108654;-91
2022/10/22 02:14:28;;;;;;;;;;;15.10;99.90;;;;;;7338667;19;112739;-90
2022/10/22 02:16:56;;;;;;;;;;;15.10;99.90;;;;;;7340562;19;108916;-91
2022/10/22 02:19:25;;;;;;;;;;;15.10;99.90;;;;;;7337933;19;109667;-91
2022/10/22 02:21:53;;;;;;;;;;;15.10;99.90;;;;;;7339211;19;113533;-90
2022/10/22 02:24:20;;;;;;;;;;;15.00;99.90;;;;;;7339862;19;109711;-90
2022/10/22 02:26:53;;;;;;;;;;;15.00;99.90;;;;;;7339522;19;109591;-91
2022/10/22 02:29:27;;;;;;;;;;;15.00;99.90;;;;;;7338002;19;113216;-91
2022/10/22 02:31:56;;;;;;;;;;;15.00;99.90;;;;;;7338397;19;108688;-90
2022/10/22 02:34:26;;;;;;;;;;;14.90;99.90;;;;;;7343078;19;109405;-90
2022/10/22 02:36:53;;;;;;;;;;;14.90;99.90;;;;;;7338464;19;108446;-90
2022/10/22 02:39:20;;;;;;;;;;;14.90;99.90;;;;;;7341039;19;112208;-90
2022/10/22 02:41:47;;;;;;;;;;;14.90;99.90;;;;;;7341371;19;109541;-91
2022/10/22 02:44:14;;;;;;;;;;;14.90;99.90;;;;;;7339520;19;108493;-90
2022/10/22 02:46:42;;;;;;;;;;;14.90;99.90;;;;;;7345091;19;108579;-90
2022/10/22 02:49:09;;;;;;;;;;;14.80;99.90;;;;;;7341362;19;110412;-90
2022/10/22 02:51:35;;;;;;;;;;;14.80;99.90;;;;;;7343072;19;108271;-90
2022/10/22 02:54:02;;;;;;;;;;;14.80;99.90;;;;;;7354715;19;112336;-90
2022/10/22 02:56:29;;;;;;;;;;;14.80;99.90;;;;;;7353175;19;110660;-89
2022/10/22 02:58:56;;;;;;;;;;;14.80;99.90;;;;;;7353906;19;110285;-90
2022/10/22 03:01:23;;;;;;;;;;;14.70;99.90;;;;;;7351102;19;109280;-90
2022/10/22 03:03:50;;;;;;;;;;;14.70;99.90;;;;;;7352672;19;108570;-89
2022/10/22 03:06:17;;;;;;;;;;;14.70;99.90;;;;;;7352916;19;108556;-90
2022/10/22 03:08:44;;;;;;;;;;;14.60;99.90;;;;;;7352831;19;110007;-90
2022/10/22 03:11:11;;;;;;;;;;;14.60;99.90;;;;;;7350611;19;108109;-91
2022/10/22 03:13:38;;;;;;;;;;;14.60;99.90;;;;;;7352222;19;111833;-90
2022/10/22 03:16:05;;;;;;;;;;;14.60;99.90;;;;;;7352727;19;111644;-91
2022/10/22 03:18:32;;;;;;;;;;;14.60;99.90;;;;;;7357065;19;109423;-90
2022/10/22 03:21:08;;;;;;;;;;;14.60;99.90;;;;;;7350083;19;111855;-90
2022/10/22 03:23:36;;;;;;;;;;;14.60;99.90;;;;;;7351485;19;108384;-90
2022/10/22 03:26:03;;;;;;;;;;;14.50;99.90;;;;;;7350025;19;108839;-90
2022/10/22 03:28:30;;;;;;;;;;;14.60;99.90;;;;;;7350478;19;109387;-91
2022/10/22 03:30:57;;;;;;;;;;;14.60;99.90;;;;;;7350767;19;108548;-90
2022/10/22 03:33:24;;;;;;;;;;;14.60;99.90;;;;;;7346564;19;108511;-89
2022/10/22 03:35:50;;;;;;;;;;;14.60;99.90;;;;;;7346412;19;109564;-91
2022/10/22 03:38:17;;;;;;;;;;;14.70;99.90;;;;;;7354642;19;108333;-91
2022/10/22 03:40:45;;;;;;;;;;;14.70;99.90;;;;;;7347889;19;109118;-91
2022/10/22 03:43:12;;;;;;;;;;;14.70;99.90;;;;;;7347552;19;108565;-90
2022/10/22 03:45:39;;;;;;;;;;;14.70;99.90;;;;;;7348025;19;109393;-89
2022/10/22 03:48:05;;;;;;;;;;;14.80;99.90;;;;;;7347913;19;111841;-91
2022/10/22 03:50:32;;;;;;;;;;;14.80;99.90;;;;;;7346148;19;108458;-90
2022/10/22 03:52:59;;;;;;;;;;;14.90;99.90;;;;;;7348471;19;109640;-91
2022/10/22 03:55:26;;;;;;;;;;;14.90;99.90;;;;;;7346920;19;109157;-89
2022/10/22 03:57:53;;;;;;;;;;;14.90;99.90;;;;;;7348905;19;108522;-90
2022/10/22 04:00:20;;;;;;;;;;;14.90;99.90;;;;;;7352632;19;109096;-90
2022/10/22 04:02:47;;;;;;;;;;;15.00;99.90;;;;;;7347571;19;108298;-89
2022/10/22 04:05:14;;;;;;;;;;;15.00;99.90;;;;;;7346328;19;109771;-90
2022/10/22 04:07:41;;;;;;;;;;;15.00;99.90;;;;;;7347028;19;112520;-90
2022/10/22 04:10:08;;;;;;;;;;;15.00;99.90;;;;;;7348294;19;108541;-90
2022/10/22 04:12:35;;;;;;;;;;;15.00;99.90;;;;;;7346157;19;108571;-89
2022/10/22 04:15:03;;;;;;;;;;;15.10;99.90;;;;;;7346970;19;108916;-91
2022/10/22 04:17:32;;;;;;;;;;;15.10;99.90;;;;;;7348247;19;108472;-91
2022/10/22 04:19:59;;;;;;;;;;;15.10;99.90;;;;;;7347529;19;109261;-90
2022/10/22 04:22:26;;;;;;;;;;;15.20;99.90;;;;;;7352998;19;109089;-90
2022/10/22 04:24:53;;;;;;;;;;;15.20;99.90;;;;;;7346902;19;109097;-90
2022/10/22 04:27:20;;;;;;;;;;;15.20;99.90;;;;;;7348536;19;109419;-89
2022/10/22 04:29:47;;;;;;;;;;;15.30;99.90;;;;;;7347368;19;108752;-89
2022/10/22 04:32:13;;;;;;;;;;;15.30;99.90;;;;;;7345617;19;109171;-90
2022/10/22 04:34:41;;;;;;;;;;;15.30;99.90;;;;;;7345796;19;111773;-89
2022/10/22 04:37:07;;;;;;;;;;;15.30;99.90;;;;;;7346797;19;108695;-91
2022/10/22 04:39:34;;;;;;;;;;;15.40;99.90;;;;;;7344738;19;108958;-90
2022/10/22 04:42:02;;;;;;;;;;;15.40;99.90;;;;;;7345611;19;109291;-89
2022/10/22 04:44:29;;;;;;;;;;;15.40;99.90;;;;;;7352653;19;108730;-90
2022/10/22 04:46:56;;;;;;;;;;;15.40;99.90;;;;;;7344224;19;113070;-90
2022/10/22 04:49:23;;;;;;;;;;;15.40;99.90;;;;;;7345004;19;108372;-91
2022/10/22 04:51:50;;;;;;;;;;;15.40;99.90;;;;;;7344944;19;109451;-91
2022/10/22 04:54:17;;;;;;;;;;;15.50;99.90;;;;;;7345142;19;110811;-90
2022/10/22 04:56:44;;;;;;;;;;;15.50;99.90;;;;;;7347055;19;108289;-90
2022/10/22 04:59:11;;;;;;;;;;;15.50;99.90;;;;;;7345397;19;109345;-91
2022/10/22 05:01:40;;;;;;;;;;;15.50;99.90;;;;;;7345603;19;110702;-91
2022/10/22 05:04:13;;;;;;;;;;;15.40;99.90;;;;;;7346186;19;108497;-90
2022/10/22 05:06:41;;;;;;;;;;;15.50;99.90;;;;;;7352405;19;108446;-91
2022/10/22 05:09:16;;;;;;;;;;;15.50;99.90;;;;;;7351996;19;108500;-89
2022/10/22 05:11:47;;;;;;;;;;;15.40;99.90;;;;;;7351370;19;109009;-91
2022/10/22 05:14:16;;;;;;;;;;;15.40;99.90;;;;;;7353536;19;109238;-90
2022/10/22 05:16:44;;;;;;;;;;;15.50;99.90;;;;;;7354963;19;108391;-90
2022/10/22 05:19:15;;;;;;;;;;;15.50;99.90;;;;;;7353150;19;110254;-90
2022/10/22 05:21:42;;;;;;;;;;;15.50;99.90;;;;;;7354752;19;109144;-89
2022/10/22 05:24:09;;;;;;;;;;;15.40;99.90;;;;;;7354169;19;108644;-90
2022/10/22 05:26:36;;;;;;;;;;;15.40;99.90;;;;;;7354413;19;111541;-89
2022/10/22 05:29:03;;;;;;;;;;;15.40;99.90;;;;;;7360960;19;110416;-89
2022/10/22 05:31:30;;;;;;;;;;;15.40;99.90;;;;;;7351345;19;109238;-90
2022/10/22 05:33:57;;;;;;;;;;;15.40;99.90;;;;;;7353942;19;109296;-89
2022/10/22 05:36:23;;;;;;;;;;;15.40;99.90;;;;;;7352165;19;108460;-90
2022/10/22 05:38:50;;;;;;;;;;;15.40;99.90;;;;;;7352869;19;108337;-90
2022/10/22 05:41:19;;;;;;;;;;;15.40;99.90;;;;;;7350748;19;113055;-90
2022/10/22 05:43:46;;;;;;;;;;;15.30;99.90;;;;;;7353591;19;109060;-91
2022/10/22 05:46:15;;;;;;;;;;;15.30;99.90;;;;;;7350821;19;110105;-90
2022/10/22 05:48:49;;;;;;;;;;;15.30;99.90;;;;;;7356408;19;110735;-91
2022/10/22 05:51:17;;;;;;;;;;;15.30;99.90;;;;;;7343645;19;109135;-91
2022/10/22 05:53:44;;;;;;;;;;;15.30;99.90;;;;;;7342248;19;110276;-91
2022/10/22 05:56:12;;;;;;;;;;;15.30;99.90;;;;;;7344032;19;108774;-91
2022/10/22 05:58:39;;;;;;;;;;;15.20;99.90;;;;;;7346647;19;108525;-91
2022/10/22 06:01:07;;;;;;;;;;;15.30;99.90;;;;;;7343077;19;110792;-90
2022/10/22 06:03:34;;;;;;;;;;;15.20;99.90;;;;;;7344284;19;108717;-91
2022/10/22 06:06:04;;;;;;;;;;;15.20;99.90;;;;;;7343198;19;111851;-90
2022/10/22 06:08:31;;;;;;;;;;;15.20;99.90;;;;;;7344021;19;109896;-91
2022/10/22 06:10:58;;;;;;;;;;;15.20;99.90;;;;;;7347168;19;108799;-91
2022/10/22 06:13:25;;;;;;;;;;;15.20;99.90;;;;;;7342168;19;110137;-91
2022/10/22 06:15:52;;;;;;;;;;;15.20;99.90;;;;;;7344967;19;108894;-92
2022/10/22 06:18:19;;;;;;;;;;;15.30;99.90;;;;;;7344768;19;110881;-90
2022/10/22 06:20:46;;;;;;;;;;;15.20;99.90;;;;;;7343300;19;110515;-90
2022/10/22 06:23:14;;;;;;;;;;;15.30;99.90;;;;;;7343804;19;109861;-91
2022/10/22 06:25:41;;;;;;;;;;;15.30;99.90;;;;;;7343260;19;108645;-90
2022/10/22 06:28:08;;;;;;;;;;;15.30;99.90;;;;;;7345507;19;110735;-90
2022/10/22 06:30:36;;;;;;;;;;;15.30;99.90;;;;;;7343335;19;108650;-91
2022/10/22 06:33:03;;;;;;;;;;;15.30;99.90;;;;;;7349354;19;109633;-91
2022/10/22 06:35:30;;;;;;;;;;;15.30;99.90;;;;;;7347260;19;108964;-94
2022/10/22 06:37:57;;;;;;;;;;;15.30;99.90;;;;;;7349470;19;110535;-96
2022/10/22 06:40:24;;;;;;;;;;;15.40;99.90;;;;;;7351928;19;108392;-96
2022/10/22 06:43:05;;;;;;;;;;;15.40;99.90;;;;;;7351456;19;108014;-95
2022/10/22 06:45:32;;;;;;;;;;;15.50;99.90;;;;;;7337039;19;108664;-75
2022/10/22 06:47:59;;;;;;;;;;;15.50;99.90;;;;;;7333839;19;110204;-76
2022/10/22 06:50:26;;;;;;;;;;;15.50;99.90;;;;;;7336012;19;114259;-75
2022/10/22 06:52:53;;;;;;;;;;;15.50;99.90;;;;;;7333820;19;109102;-75
2022/10/22 06:55:20;;;;;;;;;;;15.50;99.90;;;;;;7338111;19;109132;-75
2022/10/22 06:57:47;;;;;;;;;;;15.50;99.90;;;;;;7335408;19;109149;-75
2022/10/22 07:00:14;;;;;;;;;;;15.60;99.90;;;;;;7331489;19;110070;-76
2022/10/22 07:02:41;;;;;;;;;;;15.60;99.90;;;;;;7334582;19;108477;-76
2022/10/22 07:05:09;;;;;;;;;;;15.60;99.90;;;;;;7334883;19;109835;-76
2022/10/22 07:07:36;;;;;;;;;;;15.60;99.90;;;;;;7332445;19;110130;-75
2022/10/22 07:10:03;;;;;;;;;;;15.60;99.90;;;;;;7333852;19;109927;-76
2022/10/22 07:12:32;;;;;;;;;;;15.70;99.90;;;;;;7333710;19;112407;-76
2022/10/22 07:14:59;;;;;;;;;;;15.70;99.90;;;;;;7332192;19;109746;-76
2022/10/22 07:17:26;;;;;;;;;;;15.70;99.90;;;;;;7340710;19;108834;-76
2022/10/22 07:19:53;;;;;;;;;;;15.80;99.90;;;;;;7334824;19;110200;-76
2022/10/22 07:22:20;;;;;;;;;;;15.80;99.90;;;;;;7334590;19;108660;-75
2022/10/22 07:24:47;;;;;;;;;;;15.80;99.90;;;;;;7336525;19;110058;-76
2022/10/22 07:27:14;;;;;;;;;;;15.80;99.90;;;;;;7334036;19;110841;-78
2022/10/22 07:29:41;;;;;;;;;;;15.90;99.90;;;;;;7336716;19;108952;-78
2022/10/22 07:32:08;;;;;;;;;;;15.90;99.90;;;;;;7332445;19;111604;-77
2022/10/22 07:34:34;;;;;;;;;;;15.90;99.90;;;;;;7333796;19;110441;-80
2022/10/22 07:37:04;;;;;;;;;;;15.90;99.90;;;;;;7335246;19;109201;-76
2022/10/22 07:39:31;;;;;;;;;;;16.00;99.90;;;;;;7340163;19;109292;-80
2022/10/22 07:41:58;;;;;;;;;;;16.00;99.90;;;;;;7334978;19;109262;-76
2022/10/22 07:44:25;;;;;;;;;;;16.00;99.90;;;;;;7332421;19;109548;-79
2022/10/22 07:46:52;;;;;;;;;;;16.10;99.90;;;;;;7334934;19;109212;-76
2022/10/22 07:49:19;;;;;;;;;;;16.10;99.90;;;;;;7333928;19;108967;-76
2022/10/22 07:51:46;;;;;;;;;;;16.10;99.90;;;;;;7333912;19;108325;-75
2022/10/22 07:54:13;;;;;;;;;;;16.10;99.90;;;;;;7333306;19;109355;-75
2022/10/22 07:56:40;;;;;;;;;;;16.10;99.90;;;;;;7335575;19;109477;-75
2022/10/22 07:59:07;;;;;;;;;;;16.20;99.90;;;;;;7338236;19;111090;-76
2022/10/22 08:01:34;;;;;;;;;;;16.20;99.90;;;;;;7333259;19;109003;-76
2022/10/22 08:04:01;;;;;;;;;;;16.20;99.90;;;;;;7334939;19;109737;-76
2022/10/22 08:06:28;;;;;;;;;;;16.30;99.90;;;;;;7332268;19;110827;-75
2022/10/22 08:08:55;;;;;;;;;;;16.40;99.90;;;;;;7333413;19;108776;-76
2022/10/22 08:11:22;;;;;;;;;;;16.40;99.90;;;;;;7323907;19;109512;-76
2022/10/22 08:13:49;;;;;;;;;;;16.50;99.90;;;;;;7323689;19;109381;-76
2022/10/22 08:16:16;;;;;;;;;;;16.50;99.90;;;;;;7325187;19;111614;-76
2022/10/22 08:18:43;;;;;;;;;;;16.60;99.90;;;;;;7332767;19;109273;-76
2022/10/22 08:21:10;;;;;;;;;;;16.70;99.90;;;;;;7338786;19;111097;-76
2022/10/22 08:23:37;;;;;;;;;;;16.70;99.90;;;;;;7333409;19;111384;-75
2022/10/22 08:26:05;;;;;;;;;;;16.80;99.90;;;;;;7331282;19;109585;-76
2022/10/22 08:28:35;;;;;;;;;;;16.80;99.90;;;;;;7330166;19;109243;-76
2022/10/22 08:31:04;;;;;;;;;;;16.90;99.90;;;;;;7331727;19;109315;-76
2022/10/22 08:33:31;;;;;;;;;;;16.90;99.90;;;;;;7329967;19;112856;-76
2022/10/22 08:35:58;;;;;;;;;;;17.00;99.90;;;;;;7331152;19;108975;-77
2022/10/22 08:38:25;;;;;;;;;;;17.10;99.90;;;;;;7329230;19;109123;-76
2022/10/22 08:40:53;;;;;;;;;;;17.10;99.90;;;;;;7328875;19;110307;-76
2022/10/22 08:43:25;;;;;;;;;;;17.20;99.90;;;;;;7340396;19;109042;-76
2022/10/22 08:45:58;;;;;;;;;;;17.20;99.90;;;;;;7339591;19;109860;-76
2022/10/22 08:48:25;;;;;;;;;;;17.30;99.90;;;;;;7339092;19;108395;-76
2022/10/22 08:50:54;;;;;;;;;;;17.40;99.90;;;;;;7339032;19;109822;-76
2022/10/22 08:53:26;;;;;;;;;;;17.40;99.90;;;;;;7337727;19;111852;-76
2022/10/22 08:55:53;;;;;;;;;;;17.30;99.90;;;;;;7339234;19;108438;-76
2022/10/22 08:58:34;;;;;;;;;;;17.40;99.90;;;;;;7338112;19;112663;-76
2022/10/22 09:01:04;;;;;;;;;;;17.40;99.90;;;;;;7339999;19;110746;-76
2022/10/22 09:03:51;;;;;;;;;;;17.50;99.90;;;;;;7338125;19;116544;-77
2022/10/22 09:06:25;;;;;;;;;;;17.50;99.90;;;;;;7342053;19;109328;-76
2022/10/22 09:08:52;;;;;;;;;;;17.50;99.90;;;;;;7340731;19;108719;-76
2022/10/22 09:11:19;;;;;;;;;;;17.50;99.90;;;;;;7338004;19;109669;-76
2022/10/22 09:13:47;;;;;;;;;;;17.60;99.90;;;;;;7336285;19;111999;-75
2022/10/22 09:16:23;;;;;;;;;;;17.60;99.90;;;;;;7340680;19;108268;-76
2022/10/22 09:18:49;;;;;;;;;;;17.60;99.90;;;;;;7341750;19;108683;-75
2022/10/22 09:21:23;;;;;;;;;;;17.60;99.90;;;;;;7339695;19;110691;-75
2022/10/22 09:23:56;;;;;;;;;;;17.70;99.90;;;;;;7341702;19;109307;-76
2022/10/22 09:26:24;;;;;;;;;;;17.70;99.90;;;;;;7337387;19;109808;-76
2022/10/22 09:28:51;;;;;;;;;;;17.70;99.90;;;;;;7344601;19;110610;-76
2022/10/22 09:31:18;;;;;;;;;;;17.70;99.90;;;;;;7336704;19;108783;-76
2022/10/22 09:33:47;;;;;;;;;;;17.80;99.90;;;;;;7338712;19;110700;-75
2022/10/22 09:36:15;;;;;;;;;;;17.90;99.90;;;;;;7337606;19;109394;-76
2022/10/22 09:38:47;;;;;;;;;;;18.00;99.90;;;;;;7337533;19;110975;-76
2022/10/22 09:41:14;;;;;;;;;;;18.10;99.90;;;;;;7337561;19;110435;-76
2022/10/22 09:43:41;;;;;;;;;;;18.20;99.90;;;;;;7340489;19;111148;-76
2022/10/22 09:46:16;;;;;;;;;;;18.20;99.90;;;;;;7337244;19;110542;-76
2022/10/22 09:48:49;;;;;;;;;;;18.20;99.90;;;;;;7339824;19;110184;-76
2022/10/22 09:51:20;;;;;;;;;;;18.30;99.90;;;;;;7346761;19;108598;-76
2022/10/22 09:53:57;;;;;;;;;;;18.30;99.90;;;;;;7340533;19;109381;-76
2022/10/22 09:56:24;;;;;;;;;;;18.40;99.90;;;;;;7339338;19;109005;-76
2022/10/22 09:58:51;;;;;;;;;;;18.40;99.90;;;;;;7341762;19;109129;-76
2022/10/22 10:01:21;;;;;;;;;;;18.50;99.90;;;;;;7341107;19;110656;-76
2022/10/22 10:03:48;;;;;;;;;;;18.50;99.90;;;;;;7341396;19;109034;-76
2022/10/22 10:06:19;;;;;;;;;;;18.60;99.90;;;;;;7337033;19;109968;-76
2022/10/22 10:08:47;;;;;;;;;;;18.70;99.90;;;;;;7339089;19;110747;-76
2022/10/22 10:11:34;;;;;;;;;;;18.80;99.90;;;;;;7343430;19;108704;-76
2022/10/22 10:14:01;;;;;;;;;;;18.70;99.90;;;;;;7338886;19;111235;-76
2022/10/22 10:16:28;;;;;;;;;;;18.70;99.90;;;;;;7334891;19;110876;-76
2022/10/22 10:18:55;;;;;;;;;;;18.70;99.90;;;;;;7338171;19;109148;-76
2022/10/22 10:21:45;;;;;;;;;;;18.80;99.90;;;;;;7338820;19;110502;-75
2022/10/22 10:24:27;;;;;;;;;;;18.80;99.90;;;;;;7337832;19;108779;-76
2022/10/22 10:27:01;;;;;;;;;;;18.70;99.90;;;;;;7337908;19;109859;-75
2022/10/22 10:29:34;;;;;;;;;;;18.70;99.90;;;;;;7338502;19;110445;-76
2022/10/22 10:32:35;;;;;;;;;;;18.70;99.90;;;;;;7338679;19;110209;-75
2022/10/22 10:35:05;;;;;;;;;;;18.80;99.90;;;;;;7344927;19;109163;-76
2022/10/22 10:37:55;;;;;;;;;;;18.80;99.90;;;;;;7338208;19;109057;-75
2022/10/22 10:40:39;;;;;;;;;;;18.80;99.90;;;;;;7337107;19;109474;-76
2022/10/22 10:43:12;;;;;;;;;;;18.90;99.90;;;;;;7334645;19;111874;-76
2022/10/22 10:45:46;;;;;;;;;;;19.00;99.90;;;;;;7334384;19;108454;-75
2022/10/22 10:48:22;;;;;;;;;;;19.10;99.90;;;;;;7332316;19;108643;-74
2022/10/22 10:50:57;;;;;;;;;;;19.20;99.90;;;;;;7332978;19;110829;-75
2022/10/22 10:53:26;;;;;;;;;;;19.30;99.90;;;;;;7331790;19;110578;-75
2022/10/22 10:56:02;;;;;;;;;;;19.40;99.90;;;;;;7335603;19;109004;-75
2022/10/22 10:58:34;;;;;;;;;;;19.50;99.90;;;;;;7338124;19;109204;-74
2022/10/22 11:01:04;;;;;;;;;;;19.60;99.90;;;;;;7333427;19;110514;-75
2022/10/22 11:03:39;;;;;;;;;;;19.70;99.90;;;;;;7334072;19;110251;-74
2022/10/22 11:06:11;;;;;;;;;;;19.80;99.90;;;;;;7333369;19;109114;-74
2022/10/22 11:08:48;;;;;;;;;;;19.90;99.90;;;;;;7333745;19;110167;-75
2022/10/22 11:11:18;;;;;;;;;;;19.90;99.90;;;;;;7323540;19;109822;-75
2022/10/22 11:13:45;;;;;;;;;;;20.00;99.90;;;;;;7335694;19;109183;-74
2022/10/22 11:16:34;;;;;;;;;;;20.00;99.90;;;;;;7333275;19;110209;-74
2022/10/22 11:19:04;;;;;;;;;;;19.90;99.90;;;;;;7335060;19;110292;-74
2022/10/22 11:22:04;;;;;;;;;;;19.90;99.90;;;;;;7339610;19;109716;-74
2022/10/22 11:24:46;;;;;;;;;;;20.00;99.90;;;;;;7331955;19;110056;-74
2022/10/22 11:27:16;;;;;;;;;;;20.00;99.90;;;;;;7332451;19;109189;-74
2022/10/22 11:29:51;;;;;;;;;;;20.10;99.90;;;;;;7335570;19;109555;-75
2022/10/22 11:32:19;;;;;;;;;;;20.10;99.90;;;;;;7332119;19;110653;-75
2022/10/22 11:34:48;;;;;;;;;;;20.20;99.90;;;;;;7334187;19;109763;-74
2022/10/22 11:37:15;;;;;;;;;;;20.20;99.90;;;;;;7330374;19;110045;-74
2022/10/22 11:39:52;;;;;;;;;;;20.20;99.90;;;;;;7331462;19;110226;-73
2022/10/22 11:42:43;;;;;;;;;;;20.20;99.90;;;;;;7342294;19;110429;-73
2022/10/22 11:45:13;;;;;;;;;;;20.20;99.90;;;;;;7340091;19;109159;-73
2022/10/22 11:47:55;;;;;;;;;;;20.20;99.90;;;;;;7334001;19;109156;-74
2022/10/22 11:50:26;;;;;;;;;;;20.20;99.90;;;;;;7334776;19;109654;-73
2022/10/22 11:52:59;;;;;;;;;;;20.20;99.90;;;;;;7332161;19;109563;-74
2022/10/22 11:55:30;;;;;;;;;;;20.10;99.90;;;;;;7329156;19;108579;-74
2022/10/22 11:57:59;;;;;;;;;;;20.10;99.90;;;;;;7332088;19;109866;-74
2022/10/22 12:00:46;;;;;;;;;;;20.00;99.90;;;;;;7330757;19;109617;-74
2022/10/22 12:03:15;;;;;;;;;;;20.10;99.90;;;;;;7329806;19;109522;-74
2022/10/22 12:05:43;;;;;;;;;;;20.10;99.90;;;;;;7340878;19;109202;-74
2022/10/22 12:08:16;;;;;;;;;;;20.20;99.90;;;;;;7333155;19;108930;-75
2022/10/22 12:10:49;;;;;;;;;;;20.10;99.90;;;;;;7332884;19;108464;-74
2022/10/22 12:13:51;;;;;;;;;;;20.10;99.90;;;;;;7332394;19;110189;-74
2022/10/22 12:16:21;;;;;;;;;;;20.10;99.90;;;;;;7329860;19;109325;-74
2022/10/22 12:19:24;;;;;;;;;;;20.10;99.90;;;;;;7333995;19;110565;-74
2022/10/22 12:21:56;;;;;;;;;;;20.10;99.90;;;;;;7337323;19;110779;-74
2022/10/22 12:24:24;;;;;;;;;;;20.10;99.90;;;;;;7338867;19;108436;-74
2022/10/22 12:26:51;;;;;;;;;;;20.10;99.90;;;;;;7339852;19;109249;-74
2022/10/22 12:29:22;;;;;;;;;;;20.20;99.90;;;;;;7344339;19;110511;-73
2022/10/22 12:31:49;;;;;;;;;;;20.30;99.90;;;;;;7336795;19;108685;-74
2022/10/22 12:34:17;;;;;;;;;;;20.40;99.90;;;;;;7334961;19;111144;-74
2022/10/22 12:36:45;;;;;;;;;;;20.50;99.90;;;;;;7335792;19;109040;-74
2022/10/22 12:39:20;;;;;;;;;;;20.60;99.90;;;;;;7335782;19;108759;-74
2022/10/22 12:41:47;;;;;;;;;;;20.60;99.90;;;;;;7327601;19;110329;-74
2022/10/22 12:44:15;;;;;;;;;;;20.60;99.90;;;;;;7326374;19;110675;-74
2022/10/22 12:46:43;;;;;;;;;;;20.60;99.90;;;;;;7332967;19;109597;-74
2022/10/22 12:49:16;;;;;;;;;;;20.70;99.90;;;;;;7338091;19;109360;-74
2022/10/22 12:51:44;;;;;;;;;;;20.70;99.90;;;;;;7350339;19;108695;-74
2022/10/22 12:54:27;;;;;;;;;;;20.70;99.90;;;;;;7339782;19;111381;-74
2022/10/22 12:56:55;;;;;;;;;;;20.70;99.90;;;;;;7339417;19;108616;-74
2022/10/22 12:59:31;;;;;;;;;;;20.70;99.90;;;;;;7339908;19;109963;-74
2022/10/22 13:01:58;;;;;;;;;;;20.70;99.90;;;;;;7335953;19;109698;-74
2022/10/22 13:04:27;;;;;;;;;;;20.60;99.90;;;;;;7339519;19;109185;-74
2022/10/22 13:07:17;;;;;;;;;;;20.60;99.90;;;;;;7336004;19;109664;-74
2022/10/22 13:09:47;;;;;;;;;;;20.70;99.90;;;;;;7339095;19;109791;-74
2022/10/22 13:12:23;;;;;;;;;;;20.70;99.90;;;;;;7335938;19;111902;-74
2022/10/22 13:14:51;;;;;;;;;;;20.80;99.90;;;;;;7343857;19;112848;-74
2022/10/22 13:17:36;;;;;;;;;;;20.90;99.90;;;;;;7339511;19;108877;-73
2022/10/22 13:20:13;;;;;;;;;;;21.10;99.90;;;;;;7336559;19;109340;-73
2022/10/22 13:22:41;;;;;;;;;;;21.30;99.90;;;;;;7338822;19;110303;-74
2022/10/22 13:25:14;;;;;;;;;;;21.40;99.90;;;;;;7339443;19;108308;-74
2022/10/22 13:27:42;;;;;;;;;;;21.60;99.90;;;;;;7334654;19;112022;-74
2022/10/22 13:30:21;;;;;;;;;;;21.70;99.90;;;;;;7336592;19;110758;-74
2022/10/22 13:32:52;;;;;;;;;;;21.90;99.90;;;;;;7336340;19;109508;-66
2022/10/22 13:35:20;;;;;;;;;;;22.00;99.90;;;;;;7336699;19;109416;-67
2022/10/22 13:37:48;;;;;;;;;;;22.00;99.90;;;;;;7341690;19;109150;-66
2022/10/22 13:40:15;;;;;;;;;;;22.00;99.90;;;;;;7335043;19;109429;-66
2022/10/22 13:42:41;;;;;;;;;;;22.10;99.90;;;;;;7337236;19;110113;-66
2022/10/22 13:45:09;;;;;;;;;;;22.20;99.90;;;;;;7336674;19;108874;-66
2022/10/22 13:47:36;;;;;;;;;;;22.10;99.90;;;;;;7335588;19;109993;-65
2022/10/22 13:50:06;;;;;;;;;;;22.20;99.90;;;;;;7336667;19;109588;-66
2022/10/22 13:52:34;;;;;;;;;;;22.00;99.90;;;;;;7336677;19;109213;-66
2022/10/22 13:55:11;;;;;;;;;;;22.00;99.90;;;;;;7338487;19;109721;-66
2022/10/22 13:57:38;;;;;;;;;;;21.90;99.90;;;;;;7339333;19;110214;-66
2022/10/22 14:00:05;;;;;;;;;;;22.00;99.90;;;;;;7341236;19;109165;-66
2022/10/22 14:02:32;;;;;;;;;;;22.10;99.90;;;;;;7338421;19;110191;-66
2022/10/22 14:05:02;;;;;;;;;;;22.10;99.90;;;;;;7337737;19;109752;-66
2022/10/22 14:07:28;;;;;;;;;;;22.20;99.90;;;;;;7336523;19;109369;-66
2022/10/22 14:09:55;;;;;;;;;;;22.30;99.90;;;;;;7336553;19;109886;-66
2022/10/22 14:12:23;;;;;;;;;;;22.30;99.90;;;;;;7337894;19;109950;-66
2022/10/22 14:14:51;;;;;;;;;;;22.40;99.90;;;;;;7337576;19;108570;-66
2022/10/22 14:17:18;;;;;;;;;;;22.40;99.90;;;;;;7336343;19;109766;-66
2022/10/22 14:19:47;;;;;;;;;;;22.40;99.90;;;;;;7345868;19;108270;-66